sensor_id;sensor_type;location;lat;lon;timestamp;P1;durP1;ratioP1;P2;durP2;ratioP2
50086;SDS011;35967;50.718;7.050;2023-04-06T00:07:13;17.33;;;7.30;;
50086;SDS011;35967;50.718;7.050;2023-04-06T00:17:17;13.57;;;7.07;;
50086;SDS011;35967;50.718;7.050;2023-04-06T00:27:20;17.17;;;8.23;;
50086;SDS011;35967;50.718;7.050;2023-04-06T00:37:25;19.03;;;8.83;;
50086;SDS011;35967;50.718;7.050;2023-04-06T00:47:28;20.93;;;9.00;;
50086;SDS011;35967;50.718;7.050;2023-04-06T00:57:33;18.57;;;9.47;;
50086;SDS011;35967;50.718;7.050;2023-04-06T01:07:36;22.23;;;9.20;;
50086;SDS011;35967;50.718;7.050;2023-04-06T01:17:45;17.80;;;8.43;;
50086;SDS011;35967;50.718;7.050;2023-04-06T01:27:51;21.07;;;8.97;;
50086;SDS011;35967;50.718;7.050;2023-04-06T01:37:58;17.83;;;8.87;;
50086;SDS011;35967;50.718;7.050;2023-04-06T01:48:09;23.50;;;7.30;;
50086;SDS011;35967;50.718;7.050;2023-04-06T01:58:12;22.10;;;8.40;;
50086;SDS011;35967;50.718;7.050;2023-04-06T02:08:17;18.33;;;7.57;;
50086;SDS011;35967;50.718;7.050;2023-04-06T02:18:20;15.47;;;6.87;;
50086;SDS011;35967;50.718;7.050;2023-04-06T02:28:25;16.13;;;8.00;;
50086;SDS011;35967;50.718;7.050;2023-04-06T02:38:29;20.90;;;9.10;;
50086;SDS011;35967;50.718;7.050;2023-04-06T02:48:36;15.13;;;7.70;;
50086;SDS011;35967;50.718;7.050;2023-04-06T02:58:40;15.60;;;7.77;;
50086;SDS011;35967;50.718;7.050;2023-04-06T03:08:45;16.13;;;7.50;;
50086;SDS011;35967;50.718;7.050;2023-04-06T03:18:49;15.57;;;7.70;;
50086;SDS011;35967;50.718;7.050;2023-04-06T03:28:54;16.97;;;8.50;;
50086;SDS011;35967;50.718;7.050;2023-04-06T03:49:11;13.67;;;6.90;;
50086;SDS011;35967;50.718;7.050;2023-04-06T03:59:20;14.02;;;7.18;;
50086;SDS011;35967;50.718;7.050;2023-04-06T04:09:28;19.30;;;8.13;;
50086;SDS011;35967;50.718;7.050;2023-04-06T04:19:31;16.90;;;7.73;;
50086;SDS011;35967;50.718;7.050;2023-04-06T04:29:36;16.67;;;8.17;;
50086;SDS011;35967;50.718;7.050;2023-04-06T04:39:42;16.93;;;7.30;;
50086;SDS011;35967;50.718;7.050;2023-04-06T04:49:48;18.03;;;7.33;;
50086;SDS011;35967;50.718;7.050;2023-04-06T04:59:56;16.77;;;6.30;;
50086;SDS011;35967;50.718;7.050;2023-04-06T05:10:01;14.40;;;5.60;;
50086;SDS011;35967;50.718;7.050;2023-04-06T05:20:11;11.67;;;5.93;;
50086;SDS011;35967;50.718;7.050;2023-04-06T05:30:23;15.60;;;6.27;;
50086;SDS011;35967;50.718;7.050;2023-04-06T05:40:26;10.50;;;5.83;;
50086;SDS011;35967;50.718;7.050;2023-04-06T05:50:31;16.47;;;6.80;;
50086;SDS011;35967;50.718;7.050;2023-04-06T06:00:35;14.03;;;6.87;;
50086;SDS011;35967;50.718;7.050;2023-04-06T06:10:42;15.47;;;6.40;;
50086;SDS011;35967;50.718;7.050;2023-04-06T06:20:47;9.77;;;5.27;;
50086;SDS011;35967;50.718;7.050;2023-04-06T06:30:51;11.90;;;5.90;;
50086;SDS011;35967;50.718;7.050;2023-04-06T06:40:58;13.37;;;6.40;;
50086;SDS011;35967;50.718;7.050;2023-04-06T06:51:06;11.97;;;5.37;;
50086;SDS011;35967;50.718;7.050;2023-04-06T07:01:14;14.50;;;5.47;;
50086;SDS011;35967;50.718;7.050;2023-04-06T07:11:20;15.63;;;7.10;;
50086;SDS011;35967;50.718;7.050;2023-04-06T07:21:24;14.17;;;6.50;;
50086;SDS011;35967;50.718;7.050;2023-04-06T07:31:29;12.03;;;6.60;;
50086;SDS011;35967;50.718;7.050;2023-04-06T07:41:33;15.23;;;6.37;;
50086;SDS011;35967;50.718;7.050;2023-04-06T07:51:38;12.97;;;6.77;;
50086;SDS011;35967;50.718;7.050;2023-04-06T08:01:42;14.13;;;6.67;;
50086;SDS011;35967;50.718;7.050;2023-04-06T08:11:47;15.47;;;7.63;;
50086;SDS011;35967;50.718;7.050;2023-04-06T08:21:50;14.57;;;7.13;;
50086;SDS011;35967;50.718;7.050;2023-04-06T08:31:56;13.97;;;6.70;;
50086;SDS011;35967;50.718;7.050;2023-04-06T08:41:59;16.77;;;6.07;;
50086;SDS011;35967;50.718;7.050;2023-04-06T08:52:07;14.33;;;6.77;;
50086;SDS011;35967;50.718;7.050;2023-04-06T09:02:11;19.73;;;7.03;;
50086;SDS011;35967;50.718;7.050;2023-04-06T09:12:25;16.03;;;7.33;;
50086;SDS011;35967;50.718;7.050;2023-04-06T09:22:34;19.90;;;8.23;;
50086;SDS011;35967;50.718;7.050;2023-04-06T09:32:46;17.10;;;7.80;;
50086;SDS011;35967;50.718;7.050;2023-04-06T09:42:51;17.40;;;7.53;;
50086;SDS011;35967;50.718;7.050;2023-04-06T09:52:57;19.03;;;9.10;;
50086;SDS011;35967;50.718;7.050;2023-04-06T10:03:04;21.27;;;8.03;;
50086;SDS011;35967;50.718;7.050;2023-04-06T10:13:16;18.83;;;7.73;;
50086;SDS011;35967;50.718;7.050;2023-04-06T10:23:22;22.47;;;9.63;;
50086;SDS011;35967;50.718;7.050;2023-04-06T10:33:31;21.73;;;8.23;;
50086;SDS011;35967;50.718;7.050;2023-04-06T10:43:35;21.83;;;8.97;;
50086;SDS011;35967;50.718;7.050;2023-04-06T10:53:41;21.87;;;10.17;;
50086;SDS011;35967;50.718;7.050;2023-04-06T11:03:46;22.27;;;9.27;;
50086;SDS011;35967;50.718;7.050;2023-04-06T11:25:57;21.10;;;9.37;;
50086;SDS011;35967;50.718;7.050;2023-04-06T11:36:00;21.57;;;8.73;;
50086;SDS011;35967;50.718;7.050;2023-04-06T11:46:06;20.07;;;8.73;;
50086;SDS011;35967;50.718;7.050;2023-04-06T11:56:10;18.57;;;9.20;;
50086;SDS011;35967;50.718;7.050;2023-04-06T12:06:15;20.70;;;9.20;;
50086;SDS011;35967;50.718;7.050;2023-04-06T12:16:18;17.37;;;8.53;;
50086;SDS011;35967;50.718;7.050;2023-04-06T12:26:23;17.97;;;9.90;;
50086;SDS011;35967;50.718;7.050;2023-04-06T12:36:26;17.17;;;7.80;;
50086;SDS011;35967;50.718;7.050;2023-04-06T12:46:31;14.70;;;7.03;;
50086;SDS011;35967;50.718;7.050;2023-04-06T12:56:34;13.03;;;5.47;;
50086;SDS011;35967;50.718;7.050;2023-04-06T13:06:39;12.67;;;5.80;;
50086;SDS011;35967;50.718;7.050;2023-04-06T13:16:42;11.60;;;4.23;;
50086;SDS011;35967;50.718;7.050;2023-04-06T13:26:47;8.70;;;3.87;;
50086;SDS011;35967;50.718;7.050;2023-04-06T13:36:50;10.00;;;4.80;;
50086;SDS011;35967;50.718;7.050;2023-04-06T13:46:55;12.77;;;5.23;;
50086;SDS011;35967;50.718;7.050;2023-04-06T13:56:59;14.00;;;6.07;;
50086;SDS011;35967;50.718;7.050;2023-04-06T14:07:04;12.93;;;6.20;;
50086;SDS011;35967;50.718;7.050;2023-04-06T14:17:10;14.60;;;7.73;;
50086;SDS011;35967;50.718;7.050;2023-04-06T14:27:14;12.37;;;6.67;;
50086;SDS011;35967;50.718;7.050;2023-04-06T14:37:17;15.00;;;7.07;;
50086;SDS011;35967;50.718;7.050;2023-04-06T14:47:24;10.23;;;5.50;;
50086;SDS011;35967;50.718;7.050;2023-04-06T14:57:27;6.70;;;3.53;;
50086;SDS011;35967;50.718;7.050;2023-04-06T15:07:32;9.40;;;4.03;;
50086;SDS011;35967;50.718;7.050;2023-04-06T15:17:35;7.03;;;4.07;;
50086;SDS011;35967;50.718;7.050;2023-04-06T15:27:39;9.53;;;5.47;;
50086;SDS011;35967;50.718;7.050;2023-04-06T15:37:42;13.70;;;5.67;;
50086;SDS011;35967;50.718;7.050;2023-04-06T15:47:47;10.20;;;5.33;;
50086;SDS011;35967;50.718;7.050;2023-04-06T15:57:50;10.20;;;4.67;;
50086;SDS011;35967;50.718;7.050;2023-04-06T16:07:54;11.57;;;4.97;;
50086;SDS011;35967;50.718;7.050;2023-04-06T16:17:58;10.40;;;5.30;;
50086;SDS011;35967;50.718;7.050;2023-04-06T16:28:04;10.50;;;5.77;;
50086;SDS011;35967;50.718;7.050;2023-04-06T16:38:08;9.97;;;5.77;;
50086;SDS011;35967;50.718;7.050;2023-04-06T16:48:13;11.50;;;6.40;;
50086;SDS011;35967;50.718;7.050;2023-04-06T16:58:17;12.93;;;7.03;;
50086;SDS011;35967;50.718;7.050;2023-04-06T17:08:21;14.37;;;7.77;;
50086;SDS011;35967;50.718;7.050;2023-04-06T17:18:24;13.27;;;8.07;;
50086;SDS011;35967;50.718;7.050;2023-04-06T17:28:29;13.20;;;8.23;;
50086;SDS011;35967;50.718;7.050;2023-04-06T17:38:32;13.17;;;8.17;;
50086;SDS011;35967;50.718;7.050;2023-04-06T17:48:37;12.97;;;7.67;;
50086;SDS011;35967;50.718;7.050;2023-04-06T17:58:40;16.90;;;8.23;;
50086;SDS011;35967;50.718;7.050;2023-04-06T18:08:44;10.07;;;6.23;;
50086;SDS011;35967;50.718;7.050;2023-04-06T18:18:48;8.83;;;5.30;;
50086;SDS011;35967;50.718;7.050;2023-04-06T18:28:53;8.13;;;4.83;;
50086;SDS011;35967;50.718;7.050;2023-04-06T18:38:56;7.30;;;4.27;;
50086;SDS011;35967;50.718;7.050;2023-04-06T18:49:03;8.20;;;3.70;;
50086;SDS011;35967;50.718;7.050;2023-04-06T18:59:07;4.40;;;2.30;;
50086;SDS011;35967;50.718;7.050;2023-04-06T19:09:12;5.00;;;2.87;;
50086;SDS011;35967;50.718;7.050;2023-04-06T19:19:15;7.90;;;3.77;;
50086;SDS011;35967;50.718;7.050;2023-04-06T19:29:21;8.97;;;4.27;;
50086;SDS011;35967;50.718;7.050;2023-04-06T19:39:24;8.97;;;4.00;;
50086;SDS011;35967;50.718;7.050;2023-04-06T19:49:28;7.13;;;4.17;;
50086;SDS011;35967;50.718;7.050;2023-04-06T19:59:31;6.20;;;3.93;;
50086;SDS011;35967;50.718;7.050;2023-04-06T20:09:37;9.73;;;4.70;;
50086;SDS011;35967;50.718;7.050;2023-04-06T20:19:40;6.57;;;3.50;;
50086;SDS011;35967;50.718;7.050;2023-04-06T20:29:45;6.10;;;3.03;;
50086;SDS011;35967;50.718;7.050;2023-04-06T20:39:49;6.73;;;3.90;;
50086;SDS011;35967;50.718;7.050;2023-04-06T20:49:54;7.03;;;4.10;;
50086;SDS011;35967;50.718;7.050;2023-04-06T20:59:57;7.33;;;3.83;;
50086;SDS011;35967;50.718;7.050;2023-04-06T21:10:02;7.77;;;4.17;;
50086;SDS011;35967;50.718;7.050;2023-04-06T21:20:05;9.73;;;5.07;;
50086;SDS011;35967;50.718;7.050;2023-04-06T21:30:11;12.53;;;4.40;;
50086;SDS011;35967;50.718;7.050;2023-04-06T21:40:15;8.93;;;5.07;;
50086;SDS011;35967;50.718;7.050;2023-04-06T21:50:21;8.37;;;4.10;;
50086;SDS011;35967;50.718;7.050;2023-04-06T22:00:24;8.67;;;5.10;;
50086;SDS011;35967;50.718;7.050;2023-04-06T22:10:46;10.03;;;5.43;;
50086;SDS011;35967;50.718;7.050;2023-04-06T22:20:49;11.00;;;5.83;;
50086;SDS011;35967;50.718;7.050;2023-04-06T22:30:54;11.57;;;6.50;;
50086;SDS011;35967;50.718;7.050;2023-04-06T22:40:57;14.17;;;6.07;;
50086;SDS011;35967;50.718;7.050;2023-04-06T22:51:04;9.97;;;6.57;;
50086;SDS011;35967;50.718;7.050;2023-04-06T23:01:07;13.00;;;6.93;;
50086;SDS011;35967;50.718;7.050;2023-04-06T23:11:12;14.50;;;7.87;;
50086;SDS011;35967;50.718;7.050;2023-04-06T23:45:28;12.77;;;8.13;;
50086;SDS011;35967;50.718;7.050;2023-04-06T23:55:33;15.73;;;8.47;;
